sensor_id;sensor_type;location;lat;lon;timestamp;P1;durP1;ratioP1;P2;durP2;ratioP2
43646;SDS011;56152;49.996;18.980;2024-03-02T00:04:32;141.32;;;74.25;;
43646;SDS011;56152;49.996;18.980;2024-03-02T00:09:35;119.90;;;65.20;;
43646;SDS011;56152;49.996;18.980;2024-03-02T00:14:37;125.03;;;64.38;;
43646;SDS011;56152;49.996;18.980;2024-03-02T00:19:39;107.03;;;60.65;;
43646;SDS011;56152;49.996;18.980;2024-03-02T00:24:43;120.80;;;65.80;;
43646;SDS011;56152;49.996;18.980;2024-03-02T00:29:47;129.40;;;68.45;;
43646;SDS011;56152;49.996;18.980;2024-03-02T00:34:50;120.47;;;70.18;;
43646;SDS011;56152;49.996;18.980;2024-03-02T00:39:53;111.57;;;63.03;;
43646;SDS011;56152;49.996;18.980;2024-03-02T00:44:56;110.15;;;64.53;;
43646;SDS011;56152;49.996;18.980;2024-03-02T00:49:58;110.38;;;66.18;;
43646;SDS011;56152;49.996;18.980;2024-03-02T00:55:02;119.13;;;65.88;;
43646;SDS011;56152;49.996;18.980;2024-03-02T01:00:07;112.80;;;65.57;;
43646;SDS011;56152;49.996;18.980;2024-03-02T01:05:14;129.52;;;68.65;;
43646;SDS011;56152;49.996;18.980;2024-03-02T01:10:18;113.10;;;63.90;;
43646;SDS011;56152;49.996;18.980;2024-03-02T01:15:20;104.38;;;59.20;;
43646;SDS011;56152;49.996;18.980;2024-03-02T01:20:22;110.90;;;63.17;;
43646;SDS011;56152;49.996;18.980;2024-03-02T01:25:29;114.15;;;62.70;;
43646;SDS011;56152;49.996;18.980;2024-03-02T01:30:31;112.28;;;63.58;;
43646;SDS011;56152;49.996;18.980;2024-03-02T01:35:34;102.32;;;60.40;;
43646;SDS011;56152;49.996;18.980;2024-03-02T01:40:39;113.57;;;63.10;;
43646;SDS011;56152;49.996;18.980;2024-03-02T01:45:48;106.80;;;59.80;;
43646;SDS011;56152;49.996;18.980;2024-03-02T01:50:50;127.45;;;68.63;;
43646;SDS011;56152;49.996;18.980;2024-03-02T01:55:56;129.93;;;71.90;;
43646;SDS011;56152;49.996;18.980;2024-03-02T02:01:01;131.32;;;72.03;;
43646;SDS011;56152;49.996;18.980;2024-03-02T02:06:03;116.18;;;64.13;;
43646;SDS011;56152;49.996;18.980;2024-03-02T02:11:07;104.68;;;60.15;;
43646;SDS011;56152;49.996;18.980;2024-03-02T02:16:08;110.72;;;63.70;;
43646;SDS011;56152;49.996;18.980;2024-03-02T02:21:10;100.40;;;57.38;;
43646;SDS011;56152;49.996;18.980;2024-03-02T02:26:15;120.80;;;67.72;;
43646;SDS011;56152;49.996;18.980;2024-03-02T02:31:17;110.65;;;62.10;;
43646;SDS011;56152;49.996;18.980;2024-03-02T02:36:22;115.95;;;62.83;;
43646;SDS011;56152;49.996;18.980;2024-03-02T02:41:26;97.00;;;57.80;;
43646;SDS011;56152;49.996;18.980;2024-03-02T02:46:28;104.95;;;57.03;;
43646;SDS011;56152;49.996;18.980;2024-03-02T02:51:30;114.68;;;62.97;;
43646;SDS011;56152;49.996;18.980;2024-03-02T02:56:33;116.80;;;66.97;;
43646;SDS011;56152;49.996;18.980;2024-03-02T03:01:35;102.32;;;59.50;;
43646;SDS011;56152;49.996;18.980;2024-03-02T03:06:37;107.63;;;62.80;;
43646;SDS011;56152;49.996;18.980;2024-03-02T03:11:40;110.28;;;61.58;;
43646;SDS011;56152;49.996;18.980;2024-03-02T03:16:42;112.28;;;63.65;;
43646;SDS011;56152;49.996;18.980;2024-03-02T03:21:44;103.43;;;59.70;;
43646;SDS011;56152;49.996;18.980;2024-03-02T03:26:47;122.55;;;74.07;;
43646;SDS011;56152;49.996;18.980;2024-03-02T03:31:52;114.25;;;65.45;;
43646;SDS011;56152;49.996;18.980;2024-03-02T03:36:54;105.32;;;61.08;;
43646;SDS011;56152;49.996;18.980;2024-03-02T03:41:57;103.65;;;61.25;;
43646;SDS011;56152;49.996;18.980;2024-03-02T03:46:59;107.65;;;63.13;;
43646;SDS011;56152;49.996;18.980;2024-03-02T03:52:02;95.18;;;58.72;;
43646;SDS011;56152;49.996;18.980;2024-03-02T03:57:07;101.85;;;59.30;;
43646;SDS011;56152;49.996;18.980;2024-03-02T04:02:09;97.78;;;57.33;;
43646;SDS011;56152;49.996;18.980;2024-03-02T04:07:12;101.95;;;61.92;;
43646;SDS011;56152;49.996;18.980;2024-03-02T04:12:17;90.28;;;54.67;;
43646;SDS011;56152;49.996;18.980;2024-03-02T04:17:24;92.20;;;56.10;;
43646;SDS011;56152;49.996;18.980;2024-03-02T04:22:26;88.82;;;52.53;;
43646;SDS011;56152;49.996;18.980;2024-03-02T04:27:30;84.15;;;52.63;;
43646;SDS011;56152;49.996;18.980;2024-03-02T04:32:33;109.07;;;67.03;;
43646;SDS011;56152;49.996;18.980;2024-03-02T04:37:36;109.68;;;64.97;;
43646;SDS011;56152;49.996;18.980;2024-03-02T04:42:40;114.90;;;67.90;;
43646;SDS011;56152;49.996;18.980;2024-03-02T04:47:41;105.43;;;64.65;;
43646;SDS011;56152;49.996;18.980;2024-03-02T04:52:46;110.38;;;68.50;;
43646;SDS011;56152;49.996;18.980;2024-03-02T04:57:50;110.68;;;67.75;;
43646;SDS011;56152;49.996;18.980;2024-03-02T05:02:54;105.47;;;65.40;;
43646;SDS011;56152;49.996;18.980;2024-03-02T05:07:56;107.80;;;67.90;;
43646;SDS011;56152;49.996;18.980;2024-03-02T05:13:00;116.20;;;68.88;;
43646;SDS011;56152;49.996;18.980;2024-03-02T05:18:02;105.68;;;63.58;;
43646;SDS011;56152;49.996;18.980;2024-03-02T05:23:05;104.45;;;60.13;;
43646;SDS011;56152;49.996;18.980;2024-03-02T05:28:08;99.78;;;60.85;;
43646;SDS011;56152;49.996;18.980;2024-03-02T05:33:10;102.82;;;61.35;;
43646;SDS011;56152;49.996;18.980;2024-03-02T05:38:12;114.00;;;66.25;;
43646;SDS011;56152;49.996;18.980;2024-03-02T05:43:15;122.63;;;73.13;;
43646;SDS011;56152;49.996;18.980;2024-03-02T05:48:18;139.13;;;83.10;;
43646;SDS011;56152;49.996;18.980;2024-03-02T05:53:20;132.50;;;76.68;;
43646;SDS011;56152;49.996;18.980;2024-03-02T05:58:24;127.55;;;77.68;;
43646;SDS011;56152;49.996;18.980;2024-03-02T06:03:37;127.13;;;73.47;;
43646;SDS011;56152;49.996;18.980;2024-03-02T06:08:39;125.60;;;72.85;;
43646;SDS011;56152;49.996;18.980;2024-03-02T06:13:42;122.88;;;67.15;;
43646;SDS011;56152;49.996;18.980;2024-03-02T06:18:44;115.57;;;67.28;;
43646;SDS011;56152;49.996;18.980;2024-03-02T06:23:46;113.55;;;66.78;;
43646;SDS011;56152;49.996;18.980;2024-03-02T06:28:51;125.68;;;67.15;;
43646;SDS011;56152;49.996;18.980;2024-03-02T06:33:53;113.10;;;63.53;;
43646;SDS011;56152;49.996;18.980;2024-03-02T06:38:55;104.22;;;64.47;;
43646;SDS011;56152;49.996;18.980;2024-03-02T06:43:58;101.45;;;59.53;;
43646;SDS011;56152;49.996;18.980;2024-03-02T06:49:01;96.78;;;54.70;;
43646;SDS011;56152;49.996;18.980;2024-03-02T06:54:04;89.13;;;53.80;;
43646;SDS011;56152;49.996;18.980;2024-03-02T06:59:07;92.85;;;53.67;;
43646;SDS011;56152;49.996;18.980;2024-03-02T07:04:10;100.78;;;57.30;;
43646;SDS011;56152;49.996;18.980;2024-03-02T07:09:12;90.32;;;54.63;;
43646;SDS011;56152;49.996;18.980;2024-03-02T07:14:16;117.22;;;74.13;;
43646;SDS011;56152;49.996;18.980;2024-03-02T07:19:19;94.85;;;58.22;;
43646;SDS011;56152;49.996;18.980;2024-03-02T07:24:22;97.20;;;59.05;;
43646;SDS011;56152;49.996;18.980;2024-03-02T07:29:25;107.22;;;65.40;;
43646;SDS011;56152;49.996;18.980;2024-03-02T07:34:28;101.68;;;61.88;;
43646;SDS011;56152;49.996;18.980;2024-03-02T07:39:30;113.15;;;66.10;;
43646;SDS011;56152;49.996;18.980;2024-03-02T07:44:34;106.28;;;66.22;;
43646;SDS011;56152;49.996;18.980;2024-03-02T07:49:35;96.97;;;57.88;;
43646;SDS011;56152;49.996;18.980;2024-03-02T07:54:37;87.57;;;54.17;;
43646;SDS011;56152;49.996;18.980;2024-03-02T07:59:41;82.75;;;53.13;;
43646;SDS011;56152;49.996;18.980;2024-03-02T08:04:43;99.10;;;59.25;;
43646;SDS011;56152;49.996;18.980;2024-03-02T08:09:46;88.68;;;52.65;;
43646;SDS011;56152;49.996;18.980;2024-03-02T08:14:49;85.25;;;55.15;;
43646;SDS011;56152;49.996;18.980;2024-03-02T08:19:52;80.00;;;53.83;;
43646;SDS011;56152;49.996;18.980;2024-03-02T08:24:56;85.57;;;51.45;;
43646;SDS011;56152;49.996;18.980;2024-03-02T08:30:03;88.97;;;55.83;;
43646;SDS011;56152;49.996;18.980;2024-03-02T08:35:06;77.43;;;47.15;;
43646;SDS011;56152;49.996;18.980;2024-03-02T08:40:10;83.50;;;52.28;;
43646;SDS011;56152;49.996;18.980;2024-03-02T08:45:14;71.13;;;50.38;;
43646;SDS011;56152;49.996;18.980;2024-03-02T08:50:16;72.65;;;48.75;;
43646;SDS011;56152;49.996;18.980;2024-03-02T08:55:18;81.80;;;53.13;;
43646;SDS011;56152;49.996;18.980;2024-03-02T09:00:23;66.82;;;44.90;;
43646;SDS011;56152;49.996;18.980;2024-03-02T09:05:25;69.07;;;47.15;;
43646;SDS011;56152;49.996;18.980;2024-03-02T09:10:27;73.13;;;49.35;;
43646;SDS011;56152;49.996;18.980;2024-03-02T09:15:30;71.43;;;49.58;;
43646;SDS011;56152;49.996;18.980;2024-03-02T09:20:35;67.45;;;47.10;;
43646;SDS011;56152;49.996;18.980;2024-03-02T09:25:37;87.32;;;56.15;;
43646;SDS011;56152;49.996;18.980;2024-03-02T09:30:40;86.20;;;56.03;;
43646;SDS011;56152;49.996;18.980;2024-03-02T09:35:42;81.75;;;54.03;;
43646;SDS011;56152;49.996;18.980;2024-03-02T09:40:44;84.72;;;54.70;;
43646;SDS011;56152;49.996;18.980;2024-03-02T09:45:48;92.47;;;54.40;;
43646;SDS011;56152;49.996;18.980;2024-03-02T09:50:49;79.60;;;50.45;;
43646;SDS011;56152;49.996;18.980;2024-03-02T09:55:51;81.07;;;49.55;;
43646;SDS011;56152;49.996;18.980;2024-03-02T10:00:56;80.07;;;53.33;;
43646;SDS011;56152;49.996;18.980;2024-03-02T10:11:27;77.30;;;51.00;;
43646;SDS011;56152;49.996;18.980;2024-03-02T10:16:33;69.00;;;46.17;;
43646;SDS011;56152;49.996;18.980;2024-03-02T10:21:35;55.20;;;40.25;;
43646;SDS011;56152;49.996;18.980;2024-03-02T10:26:44;56.78;;;40.55;;
43646;SDS011;56152;49.996;18.980;2024-03-02T10:31:47;64.15;;;42.78;;
43646;SDS011;56152;49.996;18.980;2024-03-02T10:36:49;63.67;;;41.55;;
43646;SDS011;56152;49.996;18.980;2024-03-02T10:41:52;66.50;;;44.13;;
43646;SDS011;56152;49.996;18.980;2024-03-02T10:46:55;60.08;;;41.88;;
43646;SDS011;56152;49.996;18.980;2024-03-02T10:51:57;63.95;;;44.38;;
43646;SDS011;56152;49.996;18.980;2024-03-02T10:57:00;72.80;;;49.65;;
43646;SDS011;56152;49.996;18.980;2024-03-02T11:02:03;64.35;;;45.50;;
43646;SDS011;56152;49.996;18.980;2024-03-02T11:07:14;63.03;;;44.10;;
43646;SDS011;56152;49.996;18.980;2024-03-02T11:12:19;55.22;;;40.35;;
43646;SDS011;56152;49.996;18.980;2024-03-02T11:17:31;59.92;;;42.25;;
43646;SDS011;56152;49.996;18.980;2024-03-02T11:22:33;55.17;;;39.38;;
43646;SDS011;56152;49.996;18.980;2024-03-02T11:33:05;58.60;;;40.85;;
43646;SDS011;56152;49.996;18.980;2024-03-02T11:38:15;55.75;;;37.42;;
43646;SDS011;56152;49.996;18.980;2024-03-02T11:43:20;48.33;;;35.63;;
43646;SDS011;56152;49.996;18.980;2024-03-02T11:48:25;54.47;;;36.90;;
43646;SDS011;56152;49.996;18.980;2024-03-02T11:53:27;61.03;;;42.75;;
43646;SDS011;56152;49.996;18.980;2024-03-02T11:58:30;53.65;;;38.38;;
43646;SDS011;56152;49.996;18.980;2024-03-02T12:03:36;58.17;;;40.33;;
43646;SDS011;56152;49.996;18.980;2024-03-02T12:08:38;68.20;;;44.58;;
43646;SDS011;56152;49.996;18.980;2024-03-02T12:13:41;78.82;;;49.63;;
43646;SDS011;56152;49.996;18.980;2024-03-02T12:18:56;72.65;;;51.65;;
43646;SDS011;56152;49.996;18.980;2024-03-02T12:23:58;79.78;;;53.05;;
43646;SDS011;56152;49.996;18.980;2024-03-02T12:29:02;77.13;;;48.25;;
43646;SDS011;56152;49.996;18.980;2024-03-02T12:34:06;77.00;;;52.15;;
43646;SDS011;56152;49.996;18.980;2024-03-02T12:39:09;69.53;;;48.10;;
43646;SDS011;56152;49.996;18.980;2024-03-02T12:44:11;72.35;;;49.55;;
43646;SDS011;56152;49.996;18.980;2024-03-02T12:49:14;67.53;;;46.80;;
43646;SDS011;56152;49.996;18.980;2024-03-02T12:54:21;68.13;;;47.15;;
43646;SDS011;56152;49.996;18.980;2024-03-02T12:59:24;64.60;;;46.35;;
43646;SDS011;56152;49.996;18.980;2024-03-02T13:04:33;70.22;;;47.65;;
43646;SDS011;56152;49.996;18.980;2024-03-02T13:09:38;76.72;;;50.60;;
43646;SDS011;56152;49.996;18.980;2024-03-02T13:14:43;93.43;;;64.32;;
43646;SDS011;56152;49.996;18.980;2024-03-02T13:19:53;67.97;;;49.42;;
43646;SDS011;56152;49.996;18.980;2024-03-02T13:24:57;69.05;;;49.88;;
43646;SDS011;56152;49.996;18.980;2024-03-02T13:30:04;75.35;;;49.92;;
43646;SDS011;56152;49.996;18.980;2024-03-02T13:35:20;75.82;;;50.45;;
43646;SDS011;56152;49.996;18.980;2024-03-02T13:40:25;87.15;;;63.58;;
43646;SDS011;56152;49.996;18.980;2024-03-02T13:45:29;95.75;;;64.05;;
43646;SDS011;56152;49.996;18.980;2024-03-02T13:50:33;82.30;;;59.35;;
43646;SDS011;56152;49.996;18.980;2024-03-02T13:55:36;87.75;;;64.38;;
43646;SDS011;56152;49.996;18.980;2024-03-02T14:00:42;94.28;;;63.45;;
43646;SDS011;56152;49.996;18.980;2024-03-02T14:06:01;83.57;;;61.08;;
43646;SDS011;56152;49.996;18.980;2024-03-02T14:11:04;83.93;;;57.53;;
43646;SDS011;56152;49.996;18.980;2024-03-02T14:16:06;75.93;;;58.05;;
43646;SDS011;56152;49.996;18.980;2024-03-02T14:21:13;91.55;;;60.45;;
43646;SDS011;56152;49.996;18.980;2024-03-02T14:26:14;80.95;;;54.58;;
43646;SDS011;56152;49.996;18.980;2024-03-02T14:31:18;76.60;;;56.58;;
43646;SDS011;56152;49.996;18.980;2024-03-02T14:36:30;69.03;;;49.10;;
43646;SDS011;56152;49.996;18.980;2024-03-02T14:41:32;83.20;;;55.90;;
43646;SDS011;56152;49.996;18.980;2024-03-02T14:46:37;71.07;;;48.90;;
43646;SDS011;56152;49.996;18.980;2024-03-02T14:51:42;66.57;;;43.40;;
43646;SDS011;56152;49.996;18.980;2024-03-02T14:56:47;99.05;;;55.03;;
43646;SDS011;56152;49.996;18.980;2024-03-02T15:01:51;100.60;;;59.85;;
43646;SDS011;56152;49.996;18.980;2024-03-02T15:06:55;85.18;;;56.97;;
43646;SDS011;56152;49.996;18.980;2024-03-02T15:11:58;73.90;;;49.97;;
43646;SDS011;56152;49.996;18.980;2024-03-02T15:17:00;87.28;;;55.35;;
43646;SDS011;56152;49.996;18.980;2024-03-02T15:22:05;123.35;;;62.58;;
43646;SDS011;56152;49.996;18.980;2024-03-02T15:27:11;110.22;;;66.60;;
43646;SDS011;56152;49.996;18.980;2024-03-02T15:32:16;85.72;;;58.30;;
43646;SDS011;56152;49.996;18.980;2024-03-02T15:37:20;79.25;;;56.20;;
43646;SDS011;56152;49.996;18.980;2024-03-02T15:42:29;105.47;;;67.00;;
43646;SDS011;56152;49.996;18.980;2024-03-02T15:47:31;181.02;;;114.13;;
43646;SDS011;56152;49.996;18.980;2024-03-02T15:52:38;365.25;;;190.30;;
43646;SDS011;56152;49.996;18.980;2024-03-02T15:57:45;240.48;;;131.55;;
43646;SDS011;56152;49.996;18.980;2024-03-02T16:02:47;236.27;;;124.38;;
43646;SDS011;56152;49.996;18.980;2024-03-02T16:07:54;129.20;;;76.35;;
43646;SDS011;56152;49.996;18.980;2024-03-02T16:13:03;168.77;;;93.47;;
43646;SDS011;56152;49.996;18.980;2024-03-02T16:18:07;126.60;;;79.95;;
43646;SDS011;56152;49.996;18.980;2024-03-02T16:23:12;124.93;;;77.90;;
43646;SDS011;56152;49.996;18.980;2024-03-02T16:28:14;131.93;;;84.28;;
43646;SDS011;56152;49.996;18.980;2024-03-02T16:33:21;156.88;;;101.80;;
43646;SDS011;56152;49.996;18.980;2024-03-02T16:38:25;123.82;;;84.35;;
43646;SDS011;56152;49.996;18.980;2024-03-02T16:43:28;106.63;;;74.28;;
43646;SDS011;56152;49.996;18.980;2024-03-02T16:48:32;92.75;;;65.45;;
43646;SDS011;56152;49.996;18.980;2024-03-02T16:53:37;166.07;;;120.57;;
43646;SDS011;56152;49.996;18.980;2024-03-02T16:58:42;98.03;;;63.92;;
43646;SDS011;56152;49.996;18.980;2024-03-02T17:03:45;77.03;;;53.25;;
43646;SDS011;56152;49.996;18.980;2024-03-02T17:08:49;138.95;;;79.80;;
43646;SDS011;56152;49.996;18.980;2024-03-02T17:13:53;135.70;;;80.38;;
43646;SDS011;56152;49.996;18.980;2024-03-02T17:19:00;130.63;;;75.88;;
43646;SDS011;56152;49.996;18.980;2024-03-02T17:24:05;122.68;;;70.28;;
43646;SDS011;56152;49.996;18.980;2024-03-02T17:29:07;152.77;;;85.68;;
43646;SDS011;56152;49.996;18.980;2024-03-02T17:34:09;136.38;;;76.57;;
43646;SDS011;56152;49.996;18.980;2024-03-02T17:44:30;86.43;;;56.75;;
43646;SDS011;56152;49.996;18.980;2024-03-02T17:49:35;79.70;;;55.65;;
43646;SDS011;56152;49.996;18.980;2024-03-02T17:54:41;77.43;;;55.28;;
43646;SDS011;56152;49.996;18.980;2024-03-02T17:59:48;79.03;;;57.22;;
43646;SDS011;56152;49.996;18.980;2024-03-02T18:04:50;80.30;;;51.10;;
43646;SDS011;56152;49.996;18.980;2024-03-02T18:09:57;76.38;;;50.30;;
43646;SDS011;56152;49.996;18.980;2024-03-02T18:15:01;75.82;;;49.60;;
43646;SDS011;56152;49.996;18.980;2024-03-02T18:20:09;72.35;;;51.65;;
43646;SDS011;56152;49.996;18.980;2024-03-02T18:25:14;89.97;;;54.65;;
43646;SDS011;56152;49.996;18.980;2024-03-02T18:30:19;75.28;;;51.53;;
43646;SDS011;56152;49.996;18.980;2024-03-02T18:35:21;78.53;;;51.85;;
43646;SDS011;56152;49.996;18.980;2024-03-02T18:40:29;69.93;;;45.28;;
43646;SDS011;56152;49.996;18.980;2024-03-02T18:45:31;70.63;;;46.08;;
43646;SDS011;56152;49.996;18.980;2024-03-02T18:50:37;96.97;;;56.50;;
43646;SDS011;56152;49.996;18.980;2024-03-02T18:55:42;273.55;;;150.20;;
43646;SDS011;56152;49.996;18.980;2024-03-02T19:00:47;200.13;;;134.32;;
43646;SDS011;56152;49.996;18.980;2024-03-02T19:05:53;185.40;;;119.03;;
43646;SDS011;56152;49.996;18.980;2024-03-02T19:10:57;187.15;;;128.27;;
43646;SDS011;56152;49.996;18.980;2024-03-02T19:15:59;187.98;;;117.72;;
43646;SDS011;56152;49.996;18.980;2024-03-02T19:21:05;134.82;;;88.32;;
43646;SDS011;56152;49.996;18.980;2024-03-02T19:26:10;289.92;;;203.30;;
43646;SDS011;56152;49.996;18.980;2024-03-02T19:31:17;214.23;;;144.68;;
43646;SDS011;56152;49.996;18.980;2024-03-02T19:36:21;208.35;;;124.05;;
43646;SDS011;56152;49.996;18.980;2024-03-02T19:41:25;214.65;;;119.80;;
43646;SDS011;56152;49.996;18.980;2024-03-02T19:46:27;190.07;;;111.85;;
43646;SDS011;56152;49.996;18.980;2024-03-02T19:51:30;220.65;;;119.32;;
43646;SDS011;56152;49.996;18.980;2024-03-02T19:56:38;116.72;;;76.88;;
43646;SDS011;56152;49.996;18.980;2024-03-02T20:01:50;117.57;;;73.45;;
43646;SDS011;56152;49.996;18.980;2024-03-02T20:06:53;105.28;;;71.20;;
43646;SDS011;56152;49.996;18.980;2024-03-02T20:12:01;108.53;;;67.85;;
43646;SDS011;56152;49.996;18.980;2024-03-02T20:17:06;169.15;;;102.72;;
43646;SDS011;56152;49.996;18.980;2024-03-02T20:22:09;108.50;;;73.72;;
43646;SDS011;56152;49.996;18.980;2024-03-02T20:27:14;109.85;;;69.65;;
43646;SDS011;56152;49.996;18.980;2024-03-02T20:32:21;102.78;;;65.40;;
43646;SDS011;56152;49.996;18.980;2024-03-02T20:37:25;134.65;;;90.32;;
43646;SDS011;56152;49.996;18.980;2024-03-02T20:42:32;128.60;;;84.97;;
43646;SDS011;56152;49.996;18.980;2024-03-02T20:47:37;128.82;;;79.93;;
43646;SDS011;56152;49.996;18.980;2024-03-02T20:52:40;124.30;;;77.22;;
43646;SDS011;56152;49.996;18.980;2024-03-02T20:57:50;111.03;;;70.32;;
43646;SDS011;56152;49.996;18.980;2024-03-02T21:02:53;136.75;;;82.93;;
43646;SDS011;56152;49.996;18.980;2024-03-02T21:07:55;140.23;;;89.32;;
43646;SDS011;56152;49.996;18.980;2024-03-02T21:12:59;133.45;;;86.88;;
43646;SDS011;56152;49.996;18.980;2024-03-02T21:18:03;131.20;;;85.60;;
43646;SDS011;56152;49.996;18.980;2024-03-02T21:23:05;136.95;;;87.13;;
43646;SDS011;56152;49.996;18.980;2024-03-02T21:28:13;114.03;;;72.00;;
43646;SDS011;56152;49.996;18.980;2024-03-02T21:33:18;109.10;;;67.47;;
43646;SDS011;56152;49.996;18.980;2024-03-02T21:38:27;96.40;;;57.08;;
43646;SDS011;56152;49.996;18.980;2024-03-02T21:43:32;74.75;;;49.53;;
43646;SDS011;56152;49.996;18.980;2024-03-02T21:48:39;69.32;;;47.72;;
43646;SDS011;56152;49.996;18.980;2024-03-02T21:53:44;73.32;;;47.50;;
43646;SDS011;56152;49.996;18.980;2024-03-02T21:58:48;74.72;;;48.53;;
43646;SDS011;56152;49.996;18.980;2024-03-02T22:03:53;81.47;;;53.85;;
43646;SDS011;56152;49.996;18.980;2024-03-02T22:08:55;85.93;;;54.75;;
43646;SDS011;56152;49.996;18.980;2024-03-02T22:14:03;79.05;;;52.28;;
43646;SDS011;56152;49.996;18.980;2024-03-02T22:19:05;89.95;;;53.58;;
43646;SDS011;56152;49.996;18.980;2024-03-02T22:24:11;88.95;;;51.85;;
43646;SDS011;56152;49.996;18.980;2024-03-02T22:29:18;78.68;;;49.28;;
43646;SDS011;56152;49.996;18.980;2024-03-02T22:34:20;75.38;;;49.50;;
43646;SDS011;56152;49.996;18.980;2024-03-02T22:39:23;84.38;;;53.92;;
43646;SDS011;56152;49.996;18.980;2024-03-02T22:44:30;95.55;;;60.92;;
43646;SDS011;56152;49.996;18.980;2024-03-02T22:49:34;99.13;;;64.00;;
43646;SDS011;56152;49.996;18.980;2024-03-02T22:54:36;98.22;;;66.65;;
43646;SDS011;56152;49.996;18.980;2024-03-02T22:59:41;70.43;;;48.00;;
43646;SDS011;56152;49.996;18.980;2024-03-02T23:04:46;65.03;;;42.78;;
43646;SDS011;56152;49.996;18.980;2024-03-02T23:09:51;70.38;;;44.47;;
43646;SDS011;56152;49.996;18.980;2024-03-02T23:14:58;67.10;;;42.33;;
43646;SDS011;56152;49.996;18.980;2024-03-02T23:20:00;68.63;;;44.72;;
43646;SDS011;56152;49.996;18.980;2024-03-02T23:25:03;70.03;;;46.22;;
43646;SDS011;56152;49.996;18.980;2024-03-02T23:30:08;62.55;;;42.50;;
43646;SDS011;56152;49.996;18.980;2024-03-02T23:35:13;69.10;;;44.55;;
43646;SDS011;56152;49.996;18.980;2024-03-02T23:40:15;58.53;;;37.63;;
43646;SDS011;56152;49.996;18.980;2024-03-02T23:45:57;53.33;;;33.30;;
43646;SDS011;56152;49.996;18.980;2024-03-02T23:51:07;49.08;;;30.20;;
43646;SDS011;56152;49.996;18.980;2024-03-02T23:56:09;48.88;;;30.73;;
